sensor_id;sensor_type;location;lat;lon;timestamp;pressure;altitude;pressure_sealevel;temperature;humidity
49104;BME280;34915;52.926;11.116;2023-08-06T00:01:40;100638.88;;;19.71;56.51
49104;BME280;34915;52.926;11.116;2023-08-06T00:04:05;100634.88;;;19.72;57.29
49104;BME280;34915;52.926;11.116;2023-08-06T00:06:31;100636.44;;;19.73;57.00
49104;BME280;34915;52.926;11.116;2023-08-06T00:08:56;100629.41;;;19.68;56.03
49104;BME280;34915;52.926;11.116;2023-08-06T00:11:22;100627.63;;;19.74;57.48
49104;BME280;34915;52.926;11.116;2023-08-06T00:13:48;100626.97;;;19.70;58.28
49104;BME280;34915;52.926;11.116;2023-08-06T00:16:13;100623.28;;;19.73;56.69
49104;BME280;34915;52.926;11.116;2023-08-06T00:18:39;100621.84;;;19.69;58.22
49104;BME280;34915;52.926;11.116;2023-08-06T00:21:05;100623.50;;;19.66;59.08
49104;BME280;34915;52.926;11.116;2023-08-06T00:23:31;100619.69;;;19.60;58.45
49104;BME280;34915;52.926;11.116;2023-08-06T00:25:56;100614.44;;;19.62;58.69
49104;BME280;34915;52.926;11.116;2023-08-06T00:28:22;100613.22;;;19.63;58.96
49104;BME280;34915;52.926;11.116;2023-08-06T00:30:54;100618.91;;;19.59;58.99
49104;BME280;34915;52.926;11.116;2023-08-06T00:33:21;100601.75;;;19.61;59.41
49104;BME280;34915;52.926;11.116;2023-08-06T00:35:47;100598.75;;;19.55;58.22
49104;BME280;34915;52.926;11.116;2023-08-06T00:38:12;100596.91;;;19.49;59.23
49104;BME280;34915;52.926;11.116;2023-08-06T00:40:38;100583.78;;;19.49;59.43
49104;BME280;34915;52.926;11.116;2023-08-06T00:43:04;100578.78;;;19.44;59.75
49104;BME280;34915;52.926;11.116;2023-08-06T00:45:30;100579.22;;;19.43;59.12
49104;BME280;34915;52.926;11.116;2023-08-06T00:47:59;100576.22;;;19.50;59.24
49104;BME280;34915;52.926;11.116;2023-08-06T00:50:25;100576.97;;;19.38;58.98
49104;BME280;34915;52.926;11.116;2023-08-06T00:52:51;100566.28;;;19.36;59.21
49104;BME280;34915;52.926;11.116;2023-08-06T00:55:17;100562.84;;;19.32;60.22
49104;BME280;34915;52.926;11.116;2023-08-06T00:57:42;100558.03;;;19.20;60.24
49104;BME280;34915;52.926;11.116;2023-08-06T01:00:09;100558.69;;;19.24;61.18
49104;BME280;34915;52.926;11.116;2023-08-06T01:02:34;100555.91;;;19.24;60.39
49104;BME280;34915;52.926;11.116;2023-08-06T01:05:00;100553.00;;;19.15;61.12
49104;BME280;34915;52.926;11.116;2023-08-06T01:13:23;100536.22;;;19.18;61.25
49104;BME280;34915;52.926;11.116;2023-08-06T01:15:55;100533.44;;;19.18;60.26
49104;BME280;34915;52.926;11.116;2023-08-06T01:18:23;100532.00;;;19.26;60.73
49104;BME280;34915;52.926;11.116;2023-08-06T01:20:49;100530.44;;;19.25;60.07
49104;BME280;34915;52.926;11.116;2023-08-06T01:23:18;100525.88;;;19.32;60.08
49104;BME280;34915;52.926;11.116;2023-08-06T01:30:59;100507.94;;;19.20;60.70
49104;BME280;34915;52.926;11.116;2023-08-06T01:33:30;100503.03;;;19.11;60.91
49104;BME280;34915;52.926;11.116;2023-08-06T01:35:57;100498.34;;;19.08;61.24
49104;BME280;34915;52.926;11.116;2023-08-06T01:38:24;100500.69;;;19.10;61.34
49104;BME280;34915;52.926;11.116;2023-08-06T01:40:50;100496.44;;;19.05;61.60
49104;BME280;34915;52.926;11.116;2023-08-06T01:43:15;100495.22;;;19.06;61.20
49104;BME280;34915;52.926;11.116;2023-08-06T01:45:41;100492.88;;;19.05;61.13
49104;BME280;34915;52.926;11.116;2023-08-06T01:48:06;100500.16;;;18.86;60.58
49104;BME280;34915;52.926;11.116;2023-08-06T01:50:32;100497.97;;;18.93;60.73
49104;BME280;34915;52.926;11.116;2023-08-06T01:52:58;100496.19;;;19.00;59.71
49104;BME280;34915;52.926;11.116;2023-08-06T01:55:23;100486.88;;;19.06;60.49
49104;BME280;34915;52.926;11.116;2023-08-06T01:57:49;100482.97;;;19.04;60.85
49104;BME280;34915;52.926;11.116;2023-08-06T02:00:14;100473.41;;;19.05;60.18
49104;BME280;34915;52.926;11.116;2023-08-06T02:02:40;100480.53;;;19.06;60.27
49104;BME280;34915;52.926;11.116;2023-08-06T02:05:08;100476.28;;;19.01;60.37
49104;BME280;34915;52.926;11.116;2023-08-06T02:07:34;100477.03;;;18.89;60.72
49104;BME280;34915;52.926;11.116;2023-08-06T02:09:59;100478.41;;;18.97;60.84
49104;BME280;34915;52.926;11.116;2023-08-06T02:12:25;100476.63;;;19.03;60.89
49104;BME280;34915;52.926;11.116;2023-08-06T02:14:52;100467.75;;;19.08;60.05
49104;BME280;34915;52.926;11.116;2023-08-06T02:17:18;100459.34;;;18.83;61.37
49104;BME280;34915;52.926;11.116;2023-08-06T02:19:43;100465.84;;;18.63;62.42
49104;BME280;34915;52.926;11.116;2023-08-06T02:22:09;100454.56;;;18.54;61.17
49104;BME280;34915;52.926;11.116;2023-08-06T02:24:35;100451.13;;;18.50;62.53
49104;BME280;34915;52.926;11.116;2023-08-06T02:27:00;100449.00;;;18.54;62.32
49104;BME280;34915;52.926;11.116;2023-08-06T02:29:26;100447.25;;;18.60;62.87
49104;BME280;34915;52.926;11.116;2023-08-06T02:31:54;100448.75;;;18.65;62.47
49104;BME280;34915;52.926;11.116;2023-08-06T02:34:20;100444.75;;;18.66;62.53
49104;BME280;34915;52.926;11.116;2023-08-06T02:36:46;100447.25;;;18.60;62.46
49104;BME280;34915;52.926;11.116;2023-08-06T02:39:11;100442.69;;;18.54;61.81
49104;BME280;34915;52.926;11.116;2023-08-06T02:41:37;100447.19;;;18.48;63.03
49104;BME280;34915;52.926;11.116;2023-08-06T02:44:02;100439.13;;;18.53;63.52
49104;BME280;34915;52.926;11.116;2023-08-06T02:46:28;100438.13;;;18.60;62.50
49104;BME280;34915;52.926;11.116;2023-08-06T02:48:54;100432.69;;;18.56;62.50
49104;BME280;34915;52.926;11.116;2023-08-06T02:51:19;100434.91;;;18.32;63.07
49104;BME280;34915;52.926;11.116;2023-08-06T02:53:48;100438.03;;;18.34;63.54
49104;BME280;34915;52.926;11.116;2023-08-06T02:56:14;100430.03;;;18.37;63.71
49104;BME280;34915;52.926;11.116;2023-08-06T02:58:40;100422.56;;;18.33;63.91
49104;BME280;34915;52.926;11.116;2023-08-06T03:01:06;100421.25;;;18.38;63.76
49104;BME280;34915;52.926;11.116;2023-08-06T03:03:33;100420.34;;;18.28;64.00
49104;BME280;34915;52.926;11.116;2023-08-06T03:05:59;100405.91;;;18.33;63.93
49104;BME280;34915;52.926;11.116;2023-08-06T03:08:26;100405.81;;;18.37;63.89
49104;BME280;34915;52.926;11.116;2023-08-06T03:10:52;100411.16;;;18.15;64.06
49104;BME280;34915;52.926;11.116;2023-08-06T03:13:18;100413.50;;;18.17;63.93
49104;BME280;34915;52.926;11.116;2023-08-06T03:15:51;100416.97;;;18.21;63.88
49104;BME280;34915;52.926;11.116;2023-08-06T03:18:17;100406.69;;;18.34;63.18
49104;BME280;34915;52.926;11.116;2023-08-06T03:20:44;100399.81;;;18.39;62.54
49104;BME280;34915;52.926;11.116;2023-08-06T03:23:10;100398.69;;;18.36;62.81
49104;BME280;34915;52.926;11.116;2023-08-06T03:25:35;100405.81;;;18.37;62.71
49104;BME280;34915;52.926;11.116;2023-08-06T03:28:02;100400.69;;;18.36;62.61
49104;BME280;34915;52.926;11.116;2023-08-06T03:30:28;100395.56;;;18.34;62.52
49104;BME280;34915;52.926;11.116;2023-08-06T03:32:53;100401.56;;;18.32;63.06
49104;BME280;34915;52.926;11.116;2023-08-06T03:35:19;100395.44;;;18.25;62.93
49104;BME280;34915;52.926;11.116;2023-08-06T03:37:44;100389.97;;;18.21;63.60
49104;BME280;34915;52.926;11.116;2023-08-06T03:40:10;100386.63;;;18.14;64.28
49104;BME280;34915;52.926;11.116;2023-08-06T03:42:36;100390.16;;;18.14;64.00
49104;BME280;34915;52.926;11.116;2023-08-06T03:45:01;100397.53;;;18.21;63.84
49104;BME280;34915;52.926;11.116;2023-08-06T03:47:27;100397.97;;;18.19;63.19
49104;BME280;34915;52.926;11.116;2023-08-06T03:49:52;100398.31;;;18.21;62.28
49104;BME280;34915;52.926;11.116;2023-08-06T03:52:18;100406.06;;;18.14;62.39
49104;BME280;34915;52.926;11.116;2023-08-06T03:54:43;100403.03;;;18.08;63.59
49104;BME280;34915;52.926;11.116;2023-08-06T03:57:09;100393.69;;;18.02;63.62
49104;BME280;34915;52.926;11.116;2023-08-06T03:59:35;100398.09;;;17.99;63.23
49104;BME280;34915;52.926;11.116;2023-08-06T04:02:01;100398.53;;;17.98;63.14
49104;BME280;34915;52.926;11.116;2023-08-06T04:04:27;100403.81;;;18.09;63.16
49104;BME280;34915;52.926;11.116;2023-08-06T04:06:53;100403.31;;;17.97;63.73
49104;BME280;34915;52.926;11.116;2023-08-06T04:09:18;100392.31;;;17.94;64.39
49104;BME280;34915;52.926;11.116;2023-08-06T04:11:44;100401.75;;;17.96;64.28
49104;BME280;34915;52.926;11.116;2023-08-06T04:14:09;100393.34;;;18.00;63.81
49104;BME280;34915;52.926;11.116;2023-08-06T04:16:35;100390.56;;;18.00;63.30
49104;BME280;34915;52.926;11.116;2023-08-06T04:19:01;100385.19;;;17.93;64.51
49104;BME280;34915;52.926;11.116;2023-08-06T04:21:26;100381.44;;;17.83;64.69
49104;BME280;34915;52.926;11.116;2023-08-06T04:23:52;100388.56;;;17.84;64.36
49104;BME280;34915;52.926;11.116;2023-08-06T04:26:17;100388.31;;;17.79;64.51
49104;BME280;34915;52.926;11.116;2023-08-06T04:28:43;100391.00;;;17.82;63.76
49104;BME280;34915;52.926;11.116;2023-08-06T04:31:08;100389.88;;;17.96;64.05
49104;BME280;34915;52.926;11.116;2023-08-06T04:33:34;100390.91;;;17.86;63.90
49104;BME280;34915;52.926;11.116;2023-08-06T04:36:00;100385.44;;;17.98;63.70
49104;BME280;34915;52.926;11.116;2023-08-06T04:38:25;100385.41;;;18.15;63.13
49104;BME280;34915;52.926;11.116;2023-08-06T04:40:53;100379.16;;;18.11;64.10
49104;BME280;34915;52.926;11.116;2023-08-06T04:43:19;100376.47;;;18.07;63.72
49104;BME280;34915;52.926;11.116;2023-08-06T04:45:51;100383.31;;;18.19;64.09
49104;BME280;34915;52.926;11.116;2023-08-06T04:48:18;100380.97;;;18.17;64.30
49104;BME280;34915;52.926;11.116;2023-08-06T04:50:45;100382.97;;;18.17;64.31
49104;BME280;34915;52.926;11.116;2023-08-06T04:53:11;100374.78;;;18.26;64.03
49104;BME280;34915;52.926;11.116;2023-08-06T04:55:36;100377.22;;;18.24;63.90
49104;BME280;34915;52.926;11.116;2023-08-06T04:58:02;100371.84;;;18.17;63.94
49104;BME280;34915;52.926;11.116;2023-08-06T05:00:28;100381.41;;;18.16;64.10
49104;BME280;34915;52.926;11.116;2023-08-06T05:02:53;100382.31;;;18.25;64.56
49104;BME280;34915;52.926;11.116;2023-08-06T05:05:19;100375.22;;;18.24;64.91
49104;BME280;34915;52.926;11.116;2023-08-06T05:07:48;100376.44;;;18.23;64.74
49104;BME280;34915;52.926;11.116;2023-08-06T05:10:13;100373.75;;;18.20;65.19
49104;BME280;34915;52.926;11.116;2023-08-06T05:12:39;100367.28;;;18.10;64.98
49104;BME280;34915;52.926;11.116;2023-08-06T05:15:05;100374.78;;;18.26;64.89
49104;BME280;34915;52.926;11.116;2023-08-06T05:17:30;100363.63;;;18.13;65.30
49104;BME280;34915;52.926;11.116;2023-08-06T05:19:56;100378.97;;;18.18;65.60
49104;BME280;34915;52.926;11.116;2023-08-06T05:22:21;100370.97;;;18.20;65.59
49104;BME280;34915;52.926;11.116;2023-08-06T05:24:47;100368.38;;;18.13;65.62
49104;BME280;34915;52.926;11.116;2023-08-06T05:27:13;100364.75;;;18.16;65.08
49104;BME280;34915;52.926;11.116;2023-08-06T05:29:39;100365.75;;;18.22;64.93
49104;BME280;34915;52.926;11.116;2023-08-06T05:32:04;100372.44;;;18.24;65.36
49104;BME280;34915;52.926;11.116;2023-08-06T05:34:30;100373.66;;;18.23;64.97
49104;BME280;34915;52.926;11.116;2023-08-06T05:36:55;100372.09;;;18.22;64.94
49104;BME280;34915;52.926;11.116;2023-08-06T05:39:21;100370.53;;;18.21;65.50
49104;BME280;34915;52.926;11.116;2023-08-06T05:41:47;100370.72;;;18.14;65.77
49104;BME280;34915;52.926;11.116;2023-08-06T05:44:12;100369.84;;;18.17;66.06
49104;BME280;34915;52.926;11.116;2023-08-06T05:46:38;100365.72;;;18.09;66.40
49104;BME280;34915;52.926;11.116;2023-08-06T05:49:03;100366.84;;;18.12;66.27
49104;BME280;34915;52.926;11.116;2023-08-06T05:51:30;100367.47;;;18.03;65.89
49104;BME280;34915;52.926;11.116;2023-08-06T05:53:55;100369.16;;;18.13;66.20
49104;BME280;34915;52.926;11.116;2023-08-06T05:56:21;100370.69;;;18.43;66.22
49104;BME280;34915;52.926;11.116;2023-08-06T05:58:47;100364.38;;;18.43;64.79
49104;BME280;34915;52.926;11.116;2023-08-06T06:01:13;100360.59;;;18.49;64.62
49104;BME280;34915;52.926;11.116;2023-08-06T06:03:38;100365.34;;;18.65;64.81
49104;BME280;34915;52.926;11.116;2023-08-06T06:06:04;100356.56;;;18.67;65.23
49104;BME280;34915;52.926;11.116;2023-08-06T06:08:29;100357.47;;;18.76;64.91
49104;BME280;34915;52.926;11.116;2023-08-06T06:10:55;100353.56;;;18.74;65.69
49104;BME280;34915;52.926;11.116;2023-08-06T06:13:20;100349.56;;;18.75;65.75
49104;BME280;34915;52.926;11.116;2023-08-06T06:15:46;100346.56;;;18.82;65.73
49104;BME280;34915;52.926;11.116;2023-08-06T06:18:13;100338.91;;;18.73;65.86
49104;BME280;34915;52.926;11.116;2023-08-06T06:20:39;100333.56;;;18.66;66.78
49104;BME280;34915;52.926;11.116;2023-08-06T06:23:04;100337.31;;;18.59;66.11
49104;BME280;34915;52.926;11.116;2023-08-06T06:25:30;100330.53;;;18.60;66.71
49104;BME280;34915;52.926;11.116;2023-08-06T06:27:55;100338.44;;;18.62;66.50
49104;BME280;34915;52.926;11.116;2023-08-06T06:30:21;100332.78;;;18.66;66.99
49104;BME280;34915;52.926;11.116;2023-08-06T06:32:47;100334.47;;;18.88;65.59
49104;BME280;34915;52.926;11.116;2023-08-06T06:35:12;100335.56;;;18.91;65.80
49104;BME280;34915;52.926;11.116;2023-08-06T06:37:38;100331.00;;;18.72;66.61
49104;BME280;34915;52.926;11.116;2023-08-06T06:40:04;100335.91;;;18.80;66.96
49104;BME280;34915;52.926;11.116;2023-08-06T06:42:30;100339.91;;;19.05;65.32
49104;BME280;34915;52.926;11.116;2023-08-06T06:44:55;100329.44;;;19.21;64.57
49104;BME280;34915;52.926;11.116;2023-08-06T06:47:21;100330.78;;;19.17;63.95
49104;BME280;34915;52.926;11.116;2023-08-06T06:49:47;100324.88;;;19.27;63.92
49104;BME280;34915;52.926;11.116;2023-08-06T06:52:12;100325.22;;;19.30;64.02
49104;BME280;34915;52.926;11.116;2023-08-06T06:54:38;100334.22;;;19.34;64.22
49104;BME280;34915;52.926;11.116;2023-08-06T06:57:04;100325.09;;;19.33;63.91
49104;BME280;34915;52.926;11.116;2023-08-06T06:59:30;100342.78;;;19.39;64.30
49104;BME280;34915;52.926;11.116;2023-08-06T07:01:55;100330.78;;;19.30;65.38
49104;BME280;34915;52.926;11.116;2023-08-06T07:04:21;100325.41;;;19.35;64.55
49104;BME280;34915;52.926;11.116;2023-08-06T07:06:49;100326.19;;;19.36;64.39
49104;BME280;34915;52.926;11.116;2023-08-06T07:09:14;100328.16;;;19.48;64.23
49104;BME280;34915;52.926;11.116;2023-08-06T07:11:40;100331.59;;;19.52;64.48
49104;BME280;34915;52.926;11.116;2023-08-06T07:14:08;100338.06;;;19.49;64.52
49104;BME280;34915;52.926;11.116;2023-08-06T07:16:34;100339.75;;;19.59;63.58
49104;BME280;34915;52.926;11.116;2023-08-06T07:19:00;100342.19;;;19.57;63.97
49104;BME280;34915;52.926;11.116;2023-08-06T07:21:25;100335.41;;;19.45;63.18
49104;BME280;34915;52.926;11.116;2023-08-06T07:23:51;100329.06;;;19.45;63.41
49104;BME280;34915;52.926;11.116;2023-08-06T07:26:17;100331.41;;;19.46;63.37
49104;BME280;34915;52.926;11.116;2023-08-06T07:28:43;100325.25;;;19.51;63.39
49104;BME280;34915;52.926;11.116;2023-08-06T07:31:09;100323.81;;;19.59;62.14
49104;BME280;34915;52.926;11.116;2023-08-06T07:33:35;100321.59;;;19.67;63.32
49104;BME280;34915;52.926;11.116;2023-08-06T07:36:07;100319.03;;;19.60;62.82
49104;BME280;34915;52.926;11.116;2023-08-06T07:38:33;100323.38;;;19.61;63.42
49104;BME280;34915;52.926;11.116;2023-08-06T07:41:01;100323.94;;;19.69;62.01
49104;BME280;34915;52.926;11.116;2023-08-06T07:43:27;100323.69;;;19.63;62.22
49104;BME280;34915;52.926;11.116;2023-08-06T07:45:53;100329.28;;;19.50;62.68
49104;BME280;34915;52.926;11.116;2023-08-06T07:48:18;100332.31;;;19.43;63.16
49104;BME280;34915;52.926;11.116;2023-08-06T07:50:46;100327.72;;;19.49;62.47
49104;BME280;34915;52.926;11.116;2023-08-06T07:53:15;100323.94;;;19.56;63.64
49104;BME280;34915;52.926;11.116;2023-08-06T07:55:41;100327.38;;;19.73;63.29
49104;BME280;34915;52.926;11.116;2023-08-06T07:58:07;100324.47;;;19.76;63.31
49104;BME280;34915;52.926;11.116;2023-08-06T08:00:33;100334.38;;;19.65;62.47
49104;BME280;34915;52.926;11.116;2023-08-06T08:02:58;100331.59;;;19.65;61.62
49104;BME280;34915;52.926;11.116;2023-08-06T08:05:24;100326.16;;;19.61;61.78
49104;BME280;34915;52.926;11.116;2023-08-06T08:07:49;100325.94;;;19.55;62.64
49104;BME280;34915;52.926;11.116;2023-08-06T08:10:15;100321.00;;;19.25;64.05
49104;BME280;34915;52.926;11.116;2023-08-06T08:12:41;100316.84;;;19.42;64.28
49104;BME280;34915;52.926;11.116;2023-08-06T08:15:06;100323.06;;;19.46;64.12
49104;BME280;34915;52.926;11.116;2023-08-06T08:17:32;100315.94;;;19.45;63.96
49104;BME280;34915;52.926;11.116;2023-08-06T08:19:59;100317.59;;;19.55;64.53
49104;BME280;34915;52.926;11.116;2023-08-06T08:22:25;100314.38;;;19.57;64.80
49104;BME280;34915;52.926;11.116;2023-08-06T08:24:50;100317.94;;;19.57;64.53
49104;BME280;34915;52.926;11.116;2023-08-06T08:27:16;100320.47;;;19.65;64.83
49104;BME280;34915;52.926;11.116;2023-08-06T08:29:41;100315.47;;;19.72;64.23
49104;BME280;34915;52.926;11.116;2023-08-06T08:32:07;100320.56;;;19.74;63.67
49104;BME280;34915;52.926;11.116;2023-08-06T08:34:33;100316.56;;;19.75;63.35
49104;BME280;34915;52.926;11.116;2023-08-06T08:36:58;100320.91;;;19.76;64.23
49104;BME280;34915;52.926;11.116;2023-08-06T08:39:24;100308.09;;;19.78;63.68
49104;BME280;34915;52.926;11.116;2023-08-06T08:41:49;100316.63;;;19.84;62.67
49104;BME280;34915;52.926;11.116;2023-08-06T08:44:16;100309.97;;;19.81;64.27
49104;BME280;34915;52.926;11.116;2023-08-06T08:46:43;100318.75;;;19.80;64.00
49104;BME280;34915;52.926;11.116;2023-08-06T08:49:10;100313.78;;;19.75;64.14
49104;BME280;34915;52.926;11.116;2023-08-06T08:51:36;100313.13;;;19.71;64.24
49104;BME280;34915;52.926;11.116;2023-08-06T08:54:07;100311.78;;;19.63;63.10
49104;BME280;34915;52.926;11.116;2023-08-06T08:56:33;100310.94;;;19.87;62.40
49104;BME280;34915;52.926;11.116;2023-08-06T08:58:58;100315.94;;;19.93;63.99
49104;BME280;34915;52.926;11.116;2023-08-06T09:01:25;100312.88;;;20.00;63.56
49104;BME280;34915;52.926;11.116;2023-08-06T09:03:51;100312.28;;;19.83;63.97
49104;BME280;34915;52.926;11.116;2023-08-06T09:06:18;100307.06;;;19.85;64.25
49104;BME280;34915;52.926;11.116;2023-08-06T09:08:51;100309.75;;;19.76;63.55
49104;BME280;34915;52.926;11.116;2023-08-06T09:11:21;100311.44;;;19.73;62.54
49104;BME280;34915;52.926;11.116;2023-08-06T09:13:47;100304.78;;;19.71;61.45
49104;BME280;34915;52.926;11.116;2023-08-06T09:16:13;100308.09;;;19.78;61.38
49104;BME280;34915;52.926;11.116;2023-08-06T09:18:39;100310.03;;;19.90;62.04
49104;BME280;34915;52.926;11.116;2023-08-06T09:21:05;100313.06;;;19.83;62.67
49104;BME280;34915;52.926;11.116;2023-08-06T09:23:31;100309.19;;;19.81;63.11
49104;BME280;34915;52.926;11.116;2023-08-06T09:25:58;100311.00;;;19.97;62.86
49104;BME280;34915;52.926;11.116;2023-08-06T09:28:24;100304.59;;;19.87;63.20
49104;BME280;34915;52.926;11.116;2023-08-06T09:30:52;100312.31;;;20.05;61.64
49104;BME280;34915;52.926;11.116;2023-08-06T09:33:22;100310.88;;;20.22;61.34
49104;BME280;34915;52.926;11.116;2023-08-06T09:35:48;100307.56;;;20.14;61.03
49104;BME280;34915;52.926;11.116;2023-08-06T09:38:13;100306.16;;;20.32;61.64
49104;BME280;34915;52.926;11.116;2023-08-06T09:40:39;100306.47;;;20.34;61.49
49104;BME280;34915;52.926;11.116;2023-08-06T09:43:06;100308.47;;;20.33;62.20
49104;BME280;34915;52.926;11.116;2023-08-06T09:45:36;100306.94;;;20.32;61.70
49104;BME280;34915;52.926;11.116;2023-08-06T09:48:07;100307.25;;;20.34;62.83
49104;BME280;34915;52.926;11.116;2023-08-06T09:50:34;100298.19;;;20.43;62.58
49104;BME280;34915;52.926;11.116;2023-08-06T09:53:04;100297.00;;;20.53;62.23
49104;BME280;34915;52.926;11.116;2023-08-06T09:55:32;100297.09;;;20.40;62.31
49104;BME280;34915;52.926;11.116;2023-08-06T09:57:58;100302.06;;;20.45;61.62
49104;BME280;34915;52.926;11.116;2023-08-06T10:00:25;100300.97;;;20.43;62.01
49104;BME280;34915;52.926;11.116;2023-08-06T10:02:52;100301.44;;;20.41;61.97
49104;BME280;34915;52.926;11.116;2023-08-06T10:05:22;100300.13;;;20.33;62.35
49104;BME280;34915;52.926;11.116;2023-08-06T10:07:48;100303.75;;;20.21;62.79
49104;BME280;34915;52.926;11.116;2023-08-06T10:10:16;100294.59;;;20.20;63.29
49104;BME280;34915;52.926;11.116;2023-08-06T10:12:51;100291.50;;;20.18;64.28
49104;BME280;34915;52.926;11.116;2023-08-06T10:15:22;100296.41;;;20.14;64.12
49104;BME280;34915;52.926;11.116;2023-08-06T10:17:51;100289.28;;;20.35;63.69
49104;BME280;34915;52.926;11.116;2023-08-06T10:20:18;100298.06;;;20.46;64.35
49104;BME280;34915;52.926;11.116;2023-08-06T10:22:59;100285.16;;;20.40;63.97
49104;BME280;34915;52.926;11.116;2023-08-06T10:25:25;100284.31;;;20.30;64.58
49104;BME280;34915;52.926;11.116;2023-08-06T10:30:32;100295.38;;;20.21;64.72
49104;BME280;34915;52.926;11.116;2023-08-06T10:32:59;100282.03;;;20.16;64.62
49104;BME280;34915;52.926;11.116;2023-08-06T10:35:36;100282.03;;;20.16;65.52
49104;BME280;34915;52.926;11.116;2023-08-06T10:46:01;100275.22;;;20.17;65.87
49104;BME280;34915;52.926;11.116;2023-08-06T10:48:35;100268.28;;;20.21;65.78
49104;BME280;34915;52.926;11.116;2023-08-06T10:51:10;100270.06;;;20.28;65.56
49104;BME280;34915;52.926;11.116;2023-08-06T10:53:36;100270.88;;;20.38;65.34
49104;BME280;34915;52.926;11.116;2023-08-06T10:56:02;100267.13;;;20.32;65.19
49104;BME280;34915;52.926;11.116;2023-08-06T10:58:37;100273.25;;;20.39;65.10
49104;BME280;34915;52.926;11.116;2023-08-06T11:01:04;100273.25;;;20.39;65.39
49104;BME280;34915;52.926;11.116;2023-08-06T11:03:32;100260.97;;;20.15;65.33
49104;BME280;34915;52.926;11.116;2023-08-06T11:05:58;100264.63;;;20.03;65.72
49104;BME280;34915;52.926;11.116;2023-08-06T11:08:27;100265.72;;;20.05;66.02
49104;BME280;34915;52.926;11.116;2023-08-06T11:10:53;100261.59;;;19.88;65.83
49104;BME280;34915;52.926;11.116;2023-08-06T11:13:21;100260.28;;;20.24;65.61
49104;BME280;34915;52.926;11.116;2023-08-06T11:15:47;100256.03;;;20.19;65.37
49104;BME280;34915;52.926;11.116;2023-08-06T11:18:15;100250.47;;;20.19;64.84
49104;BME280;34915;52.926;11.116;2023-08-06T11:20:40;100256.66;;;19.70;66.83
49104;BME280;34915;52.926;11.116;2023-08-06T11:23:09;100250.31;;;19.70;67.13
49104;BME280;34915;52.926;11.116;2023-08-06T11:25:44;100252.72;;;19.80;66.75
49104;BME280;34915;52.926;11.116;2023-08-06T11:28:10;100244.63;;;19.73;66.79
49104;BME280;34915;52.926;11.116;2023-08-06T11:30:38;100235.69;;;19.78;66.88
49104;BME280;34915;52.926;11.116;2023-08-06T11:33:06;100239.25;;;19.79;67.29
49104;BME280;34915;52.926;11.116;2023-08-06T11:35:35;100240.19;;;19.63;66.79
49104;BME280;34915;52.926;11.116;2023-08-06T11:38:01;100239.84;;;19.61;67.56
49104;BME280;34915;52.926;11.116;2023-08-06T11:40:27;100234.84;;;19.69;67.01
49104;BME280;34915;52.926;11.116;2023-08-06T11:42:52;100230.19;;;19.66;67.30
49104;BME280;34915;52.926;11.116;2023-08-06T11:45:22;100226.53;;;19.56;66.42
49104;BME280;34915;52.926;11.116;2023-08-06T11:47:51;100228.72;;;19.61;65.91
49104;BME280;34915;52.926;11.116;2023-08-06T11:50:27;100233.28;;;19.89;66.12
49104;BME280;34915;52.926;11.116;2023-08-06T11:52:59;100231.19;;;20.03;64.94
49104;BME280;34915;52.926;11.116;2023-08-06T11:55:26;100222.09;;;19.80;64.89
49104;BME280;34915;52.926;11.116;2023-08-06T11:57:54;100219.50;;;19.86;65.92
49104;BME280;34915;52.926;11.116;2023-08-06T12:00:20;100213.59;;;19.84;65.79
49104;BME280;34915;52.926;11.116;2023-08-06T12:02:48;100210.69;;;19.87;65.39
49104;BME280;34915;52.926;11.116;2023-08-06T12:05:17;100211.19;;;19.95;67.13
49104;BME280;34915;52.926;11.116;2023-08-06T12:07:58;100211.66;;;19.94;66.30
49104;BME280;34915;52.926;11.116;2023-08-06T12:10:25;100210.34;;;19.85;65.17
49104;BME280;34915;52.926;11.116;2023-08-06T12:12:51;100203.94;;;19.98;65.82
49104;BME280;34915;52.926;11.116;2023-08-06T12:15:17;100203.94;;;19.98;65.22
49104;BME280;34915;52.926;11.116;2023-08-06T12:17:43;100200.09;;;20.04;65.83
49104;BME280;34915;52.926;11.116;2023-08-06T12:20:09;100198.69;;;20.00;65.54
49104;BME280;34915;52.926;11.116;2023-08-06T12:22:37;100193.47;;;20.11;65.36
49104;BME280;34915;52.926;11.116;2023-08-06T12:25:08;100195.47;;;20.10;64.81
49104;BME280;34915;52.926;11.116;2023-08-06T12:27:38;100190.56;;;20.14;65.43
49104;BME280;34915;52.926;11.116;2023-08-06T12:30:05;100188.88;;;20.17;63.97
49104;BME280;34915;52.926;11.116;2023-08-06T12:32:31;100187.91;;;20.11;64.21
49104;BME280;34915;52.926;11.116;2023-08-06T12:34:56;100183.91;;;20.21;65.42
49104;BME280;34915;52.926;11.116;2023-08-06T12:37:22;100181.81;;;20.25;64.65
49104;BME280;34915;52.926;11.116;2023-08-06T12:39:48;100180.56;;;20.26;64.89
49104;BME280;34915;52.926;11.116;2023-08-06T12:42:13;100188.66;;;20.33;64.91
49104;BME280;34915;52.926;11.116;2023-08-06T12:44:39;100184.94;;;20.36;65.71
49104;BME280;34915;52.926;11.116;2023-08-06T12:47:05;100181.53;;;20.32;66.16
49104;BME280;34915;52.926;11.116;2023-08-06T12:49:30;100182.75;;;20.31;65.96
49104;BME280;34915;52.926;11.116;2023-08-06T12:51:58;100183.25;;;20.39;66.26
49104;BME280;34915;52.926;11.116;2023-08-06T12:54:25;100174.56;;;20.37;66.21
49104;BME280;34915;52.926;11.116;2023-08-06T12:56:51;100180.69;;;20.53;66.63
49104;BME280;34915;52.926;11.116;2023-08-06T12:59:17;100176.84;;;20.60;66.41